Time;durP1;ratioP1;P1;durP2;ratioP2;P2;SDS_P1;SDS_P2;PMS_P1;PMS_P2;Temp;Humidity;BMP_temperature;BMP_pressure;BME280_temperature;BME280_humidity;BME280_pressure;Samples;Min_cycle;Max_cycle;Signal;HPM_P1;HPM_P2
2024/01/06 00:00:16;;;;;;;15.80;10.00;;;4.80;99.90;;;;;;4993952;28;20297;-74
2024/01/06 00:02:43;;;;;;;16.40;10.45;;;4.80;99.90;;;;;;4985950;28;20497;-73
2024/01/06 00:05:08;;;;;;;15.38;10.25;;;5.00;99.90;;;;;;4991574;28;20045;-74
2024/01/06 00:07:37;;;;;;;16.48;10.60;;;4.80;99.90;;;;;;4990266;28;20050;-75
2024/01/06 00:10:03;;;;;;;17.48;10.23;;;4.80;99.90;;;;;;4989265;28;20037;-76
2024/01/06 00:12:35;;;;;;;22.65;14.90;;;4.80;99.90;;;;;;4970931;28;20117;-76
2024/01/06 00:15:01;;;;;;;24.27;16.85;;;4.80;99.90;;;;;;4958385;28;20045;-75
2024/01/06 00:17:27;;;;;;;20.63;13.57;;;4.80;99.90;;;;;;5007209;22;20034;-76
2024/01/06 00:19:53;;;;;;;17.60;11.23;;;4.80;99.90;;;;;;5017907;28;20398;-77
2024/01/06 00:22:19;;;;;;;18.70;12.25;;;4.70;99.90;;;;;;5001008;28;20487;-77
2024/01/06 00:24:44;;;;;;;21.48;13.75;;;4.70;99.90;;;;;;5013256;28;20683;-78
2024/01/06 00:27:10;;;;;;;21.80;14.27;;;4.80;99.90;;;;;;4994061;28;20133;-78
2024/01/06 00:29:36;;;;;;;19.08;12.65;;;4.70;99.90;;;;;;5014989;28;20113;-76
2024/01/06 00:32:03;;;;;;;25.35;15.82;;;4.70;99.90;;;;;;4996881;28;20056;-77
2024/01/06 00:34:29;;;;;;;23.58;15.68;;;4.70;99.90;;;;;;4996665;28;20137;-77
2024/01/06 00:36:54;;;;;;;22.85;15.40;;;4.70;99.90;;;;;;4994238;28;20120;-77
2024/01/06 00:39:20;;;;;;;19.13;12.25;;;4.70;99.90;;;;;;5012538;28;20125;-77
2024/01/06 00:41:46;;;;;;;20.48;14.98;;;4.60;99.90;;;;;;5014111;28;20037;-76
2024/01/06 00:44:11;;;;;;;23.45;15.10;;;4.70;99.90;;;;;;4986336;28;20045;-77
2024/01/06 00:46:38;;;;;;;17.92;12.77;;;4.70;99.90;;;;;;4993112;28;20042;-77
2024/01/06 00:49:04;;;;;;;17.90;12.52;;;4.70;99.90;;;;;;4998675;28;20045;-77
2024/01/06 00:51:29;;;;;;;24.30;16.63;;;4.70;99.90;;;;;;5009251;28;20407;-77
2024/01/06 00:53:55;;;;;;;18.50;12.70;;;4.70;99.90;;;;;;5002188;28;20476;-77
2024/01/06 00:56:21;;;;;;;21.38;14.95;;;4.70;99.90;;;;;;4995617;28;20046;-77
2024/01/06 00:58:46;;;;;;;18.05;12.48;;;4.70;99.90;;;;;;4995229;28;20038;-77
2024/01/06 01:01:12;;;;;;;20.40;13.85;;;4.70;99.90;;;;;;4997533;28;20103;-77
2024/01/06 01:03:37;;;;;;;18.52;12.73;;;4.70;99.90;;;;;;4993353;28;20100;-77
2024/01/06 01:06:03;;;;;;;18.73;12.95;;;4.70;99.90;;;;;;4998662;28;20096;-77
2024/01/06 01:08:30;;;;;;;21.17;12.70;;;4.60;99.90;;;;;;4992151;28;20048;-77
2024/01/06 01:10:57;;;;;;;20.52;12.98;;;4.60;99.90;;;;;;4984858;28;20053;-77
2024/01/06 01:13:23;;;;;;;22.27;13.93;;;4.60;99.90;;;;;;5008924;28;20129;-77
2024/01/06 01:15:48;;;;;;;21.00;14.00;;;4.60;99.90;;;;;;4982827;28;20040;-78
2024/01/06 01:18:14;;;;;;;23.08;14.80;;;4.60;99.90;;;;;;4976737;28;20033;-76
2024/01/06 01:20:43;;;;;;;22.40;14.38;;;4.60;99.90;;;;;;4999754;28;20493;-78
2024/01/06 01:23:09;;;;;;;24.38;15.10;;;4.60;99.90;;;;;;4993450;28;20129;-77
2024/01/06 01:25:34;;;;;;;24.38;15.07;;;4.60;99.90;;;;;;4991353;28;20129;-78
2024/01/06 01:28:00;;;;;;;25.95;15.60;;;4.60;99.90;;;;;;4987216;28;20109;-77
2024/01/06 01:30:25;;;;;;;25.92;16.10;;;4.60;99.90;;;;;;5008474;28;20041;-77
2024/01/06 01:32:51;;;;;;;23.63;14.82;;;4.50;99.90;;;;;;4993055;28;20762;-78
2024/01/06 01:35:16;;;;;;;24.80;16.40;;;4.50;99.90;;;;;;5009134;28;20038;-78
2024/01/06 01:37:42;;;;;;;26.63;16.15;;;4.50;99.90;;;;;;5004658;28;20036;-77
2024/01/06 01:40:08;;;;;;;23.92;15.82;;;4.50;99.90;;;;;;5000961;28;20167;-77
2024/01/06 01:42:34;;;;;;;26.70;16.27;;;4.50;99.90;;;;;;5022857;28;20046;-77
2024/01/06 01:44:59;;;;;;;29.33;17.92;;;4.40;99.90;;;;;;5012286;28;20068;-77
2024/01/06 01:47:26;;;;;;;28.25;17.13;;;4.40;99.90;;;;;;4983865;28;20046;-77
2024/01/06 01:49:54;;;;;;;27.35;17.40;;;4.40;99.90;;;;;;5006951;28;20506;-77
2024/01/06 01:52:20;;;;;;;27.48;17.63;;;4.40;99.90;;;;;;5011014;28;20038;-77
2024/01/06 01:54:47;;;;;;;28.48;16.50;;;4.30;99.90;;;;;;4986561;28;20072;-78
2024/01/06 01:57:15;;;;;;;25.33;15.13;;;4.30;99.90;;;;;;4994227;28;20045;-78
2024/01/06 01:59:41;;;;;;;25.35;14.75;;;4.40;99.90;;;;;;4985915;28;20050;-78
2024/01/06 02:02:08;;;;;;;25.30;14.77;;;4.30;99.90;;;;;;5004026;28;20041;-78
2024/01/06 02:04:34;;;;;;;24.48;15.25;;;4.30;99.90;;;;;;4977694;28;20500;-78
2024/01/06 02:06:59;;;;;;;25.17;15.07;;;4.20;99.90;;;;;;4999599;28;20117;-77
2024/01/06 02:09:28;;;;;;;27.17;15.80;;;4.20;99.90;;;;;;4992900;28;20418;-77
2024/01/06 02:11:56;;;;;;;24.85;15.38;;;4.20;99.90;;;;;;5014201;28;20100;-77
2024/01/06 02:14:22;;;;;;;25.75;15.02;;;4.20;99.90;;;;;;4995675;28;20052;-77
2024/01/06 02:16:47;;;;;;;24.92;15.95;;;4.20;99.90;;;;;;4994174;28;20045;-76
2024/01/06 02:19:15;;;;;;;27.75;17.15;;;4.20;99.90;;;;;;4996150;28;20034;-76
2024/01/06 02:21:43;;;;;;;24.25;15.25;;;4.20;99.90;;;;;;4988127;28;20050;-76
2024/01/06 02:24:09;;;;;;;25.45;15.30;;;4.10;99.90;;;;;;4996914;28;20042;-76
2024/01/06 02:26:34;;;;;;;25.23;15.38;;;4.10;99.90;;;;;;5011172;28;20056;-78
2024/01/06 02:29:01;;;;;;;25.83;15.48;;;4.10;99.90;;;;;;4990096;28;20034;-77
2024/01/06 02:31:27;;;;;;;23.52;14.85;;;4.10;99.90;;;;;;4991564;28;20045;-77
2024/01/06 02:33:52;;;;;;;26.95;14.43;;;4.10;99.90;;;;;;5003133;28;20069;-77
2024/01/06 02:36:18;;;;;;;25.50;14.85;;;4.00;99.90;;;;;;4988173;28;20054;-76
2024/01/06 02:38:44;;;;;;;24.35;14.63;;;4.00;99.90;;;;;;4993565;28;20121;-76
2024/01/06 02:41:09;;;;;;;25.45;15.27;;;4.00;99.90;;;;;;4995189;28;20491;-77
2024/01/06 02:43:35;;;;;;;26.15;14.70;;;4.00;99.90;;;;;;4999396;28;20095;-77
2024/01/06 02:46:00;;;;;;;24.05;14.55;;;4.00;99.90;;;;;;5003278;28;20034;-77
2024/01/06 02:48:26;;;;;;;22.55;13.70;;;4.00;99.90;;;;;;4986483;28;20042;-77
2024/01/06 02:50:51;;;;;;;25.80;14.07;;;4.00;99.90;;;;;;4995411;28;20053;-77
2024/01/06 02:53:17;;;;;;;24.40;14.30;;;4.00;99.90;;;;;;4993153;28;20045;-77
2024/01/06 02:55:42;;;;;;;24.35;14.35;;;4.00;99.90;;;;;;4985131;28;20677;-77
2024/01/06 02:58:08;;;;;;;23.23;13.60;;;4.00;99.90;;;;;;4999506;28;20041;-77
2024/01/06 03:00:34;;;;;;;26.67;14.60;;;3.90;99.90;;;;;;5002038;28;20046;-77
2024/01/06 03:02:59;;;;;;;23.25;14.10;;;3.90;99.90;;;;;;4984334;28;20078;-77
2024/01/06 03:05:25;;;;;;;21.75;13.02;;;3.90;99.90;;;;;;4996727;28;20044;-78
2024/01/06 03:07:50;;;;;;;23.95;14.43;;;3.90;99.90;;;;;;4994828;28;20096;-77
2024/01/06 03:10:16;;;;;;;26.73;14.82;;;3.90;99.90;;;;;;4990883;28;20489;-77
2024/01/06 03:12:41;;;;;;;23.38;14.35;;;3.90;99.90;;;;;;4982726;28;20107;-77
2024/01/06 03:15:08;;;;;;;24.05;14.23;;;3.90;99.90;;;;;;4995143;28;20037;-77
2024/01/06 03:17:33;;;;;;;22.98;14.48;;;3.90;99.90;;;;;;4996847;28;20050;-77
2024/01/06 03:19:59;;;;;;;23.75;14.52;;;3.90;99.90;;;;;;5007590;28;20369;-77
2024/01/06 03:22:24;;;;;;;21.95;13.77;;;3.90;99.90;;;;;;5003935;28;20050;-77
2024/01/06 03:24:50;;;;;;;22.27;13.85;;;3.90;99.90;;;;;;4983484;28;20080;-77
2024/01/06 03:27:15;;;;;;;20.77;13.13;;;4.00;99.90;;;;;;5011836;28;20088;-77
2024/01/06 03:29:41;;;;;;;21.83;12.98;;;3.90;99.90;;;;;;4994845;28;20034;-77
2024/01/06 03:32:06;;;;;;;21.83;12.70;;;3.90;99.90;;;;;;4994404;28;20123;-77
2024/01/06 03:34:32;;;;;;;23.02;13.27;;;3.90;99.90;;;;;;4974681;28;20508;-77
2024/01/06 03:36:57;;;;;;;22.73;13.10;;;3.90;99.90;;;;;;4984995;28;20087;-78
2024/01/06 03:39:23;;;;;;;21.20;12.80;;;3.90;99.90;;;;;;5011104;28;20038;-77
2024/01/06 03:41:49;;;;;;;24.08;13.45;;;3.90;99.90;;;;;;4990458;28;20038;-77
2024/01/06 03:44:14;;;;;;;20.48;12.57;;;3.90;99.90;;;;;;4987979;28;20057;-77
2024/01/06 03:46:40;;;;;;;20.55;12.70;;;3.90;99.90;;;;;;4966027;28;20084;-77
2024/01/06 03:49:06;;;;;;;22.83;12.82;;;3.90;99.90;;;;;;4994466;28;20133;-77
2024/01/06 03:51:31;;;;;;;21.17;12.32;;;3.90;99.90;;;;;;4994170;28;20045;-78
2024/01/06 03:53:57;;;;;;;19.05;12.63;;;3.80;99.90;;;;;;4989664;28;20553;-77
2024/01/06 03:56:22;;;;;;;19.73;12.60;;;3.80;99.90;;;;;;4986660;28;20125;-78
2024/01/06 03:58:48;;;;;;;20.35;12.15;;;3.80;99.90;;;;;;4980982;28;20408;-77
2024/01/06 04:01:14;;;;;;;20.75;12.32;;;3.80;99.90;;;;;;5007314;28;20104;-77
2024/01/06 04:03:42;;;;;;;21.20;12.75;;;3.80;99.90;;;;;;4991688;28;20053;-77
2024/01/06 04:06:08;;;;;;;20.25;12.52;;;3.80;99.90;;;;;;4979304;28;20659;-78
2024/01/06 04:08:35;;;;;;;20.92;12.02;;;3.80;99.90;;;;;;4984851;28;20669;-77
2024/01/06 04:11:01;;;;;;;21.35;13.00;;;3.70;99.90;;;;;;4994092;28;20046;-77
2024/01/06 04:13:26;;;;;;;23.70;13.73;;;3.70;99.90;;;;;;4992648;28;20692;-77
2024/01/06 04:15:52;;;;;;;24.38;13.30;;;3.80;99.90;;;;;;5009422;28;20121;-77
2024/01/06 04:18:18;;;;;;;25.08;14.20;;;3.70;99.90;;;;;;4999788;28;20046;-77
2024/01/06 04:20:43;;;;;;;27.35;13.80;;;3.80;99.90;;;;;;4980047;28;20054;-77
2024/01/06 04:23:09;;;;;;;25.27;14.38;;;3.70;99.90;;;;;;4993565;28;20052;-78
2024/01/06 04:25:34;;;;;;;27.02;14.70;;;3.70;99.90;;;;;;4994464;28;20132;-76
2024/01/06 04:28:00;;;;;;;26.15;14.32;;;3.70;99.90;;;;;;4989422;28;20542;-77
2024/01/06 04:30:26;;;;;;;26.42;14.82;;;3.70;99.90;;;;;;4986239;28;20493;-77
2024/01/06 04:32:51;;;;;;;25.98;15.00;;;3.70;99.90;;;;;;4985042;28;20096;-77
2024/01/06 04:35:17;;;;;;;25.13;14.65;;;3.70;99.90;;;;;;4980926;28;20053;-77
2024/01/06 04:37:43;;;;;;;26.67;15.45;;;3.80;99.90;;;;;;4978340;28;20045;-77
2024/01/06 04:40:10;;;;;;;26.52;14.80;;;3.70;99.90;;;;;;5011350;28;20029;-77
2024/01/06 04:42:35;;;;;;;27.42;15.20;;;3.70;99.90;;;;;;4985650;28;20056;-77
2024/01/06 04:45:01;;;;;;;27.38;15.70;;;3.70;99.90;;;;;;4978682;28;20116;-77
2024/01/06 04:47:27;;;;;;;28.92;15.82;;;3.70;99.90;;;;;;4987914;28;20044;-77
2024/01/06 04:49:53;;;;;;;27.45;15.23;;;3.70;99.90;;;;;;4989601;28;20041;-77
2024/01/06 04:52:19;;;;;;;26.20;15.15;;;3.70;99.90;;;;;;4992705;28;20132;-78
2024/01/06 04:54:44;;;;;;;27.38;16.17;;;3.70;99.90;;;;;;4992142;28;20055;-78
2024/01/06 04:57:10;;;;;;;26.55;14.80;;;3.70;99.90;;;;;;4971576;28;20045;-78
2024/01/06 04:59:35;;;;;;;26.90;15.18;;;3.70;99.90;;;;;;4976438;28;20443;-78
2024/01/06 05:02:01;;;;;;;27.40;15.40;;;3.70;99.90;;;;;;4986413;28;20081;-77
2024/01/06 05:04:27;;;;;;;28.20;15.27;;;3.70;99.90;;;;;;4992932;28;20046;-77
2024/01/06 05:06:52;;;;;;;29.33;15.60;;;3.70;99.90;;;;;;4981600;28;20149;-77
2024/01/06 05:09:18;;;;;;;28.15;14.98;;;3.60;99.90;;;;;;4993225;28;20042;-77
2024/01/06 05:11:44;;;;;;;28.30;14.38;;;3.60;99.90;;;;;;4975955;28;20125;-77
2024/01/06 05:14:13;;;;;;;28.05;15.32;;;3.60;99.90;;;;;;4981449;28;20045;-77
2024/01/06 05:16:38;;;;;;;24.67;14.43;;;3.60;99.90;;;;;;5002511;28;20121;-77
2024/01/06 05:19:04;;;;;;;25.17;14.48;;;3.60;99.90;;;;;;4966899;28;20126;-77
2024/01/06 05:21:30;;;;;;;30.13;15.32;;;3.60;99.90;;;;;;4992224;28;20039;-78
2024/01/06 05:23:55;;;;;;;26.20;14.73;;;3.60;99.90;;;;;;4981682;28;20069;-78
2024/01/06 05:26:21;;;;;;;25.83;14.00;;;3.60;99.90;;;;;;5001783;28;20567;-78
2024/01/06 05:28:46;;;;;;;26.63;14.80;;;3.60;99.90;;;;;;4986185;28;20489;-78
2024/01/06 05:31:12;;;;;;;23.73;14.07;;;3.60;99.90;;;;;;4984565;28;20034;-78
2024/01/06 05:33:38;;;;;;;27.30;15.52;;;3.50;99.90;;;;;;5014663;28;20042;-78
2024/01/06 05:36:04;;;;;;;26.48;15.60;;;3.50;99.90;;;;;;4996374;28;20092;-78
2024/01/06 05:38:29;;;;;;;30.40;15.82;;;3.50;99.90;;;;;;5005561;28;20401;-78
2024/01/06 05:40:55;;;;;;;26.65;14.65;;;3.50;99.90;;;;;;4996924;28;20052;-78
2024/01/06 05:43:21;;;;;;;26.20;15.05;;;3.50;99.90;;;;;;5002784;28;20120;-78
2024/01/06 05:45:46;;;;;;;28.08;15.85;;;3.50;99.90;;;;;;4992297;28;20513;-78
2024/01/06 05:48:12;;;;;;;30.90;16.20;;;3.50;99.90;;;;;;4979135;28;22965;-78
2024/01/06 05:50:39;;;;;;;28.35;15.35;;;3.50;99.90;;;;;;4982651;28;20112;-79
2024/01/06 05:53:05;;;;;;;28.08;15.55;;;3.50;99.90;;;;;;4993427;28;20045;-78
2024/01/06 05:55:30;;;;;;;27.17;14.40;;;3.50;99.90;;;;;;4989215;28;20061;-78
2024/01/06 05:57:56;;;;;;;21.60;13.23;;;3.50;99.90;;;;;;4990437;28;20034;-78
2024/01/06 06:00:22;;;;;;;24.02;13.48;;;3.50;99.90;;;;;;5015746;28;20120;-78
2024/01/06 06:02:47;;;;;;;23.45;13.63;;;3.50;99.90;;;;;;4964725;28;20046;-78
2024/01/06 06:05:13;;;;;;;24.00;13.00;;;3.50;99.90;;;;;;5005088;28;20048;-78
2024/01/06 06:07:39;;;;;;;22.92;12.27;;;3.40;99.90;;;;;;4979129;28;20072;-78
2024/01/06 06:10:07;;;;;;;20.90;12.57;;;3.50;99.90;;;;;;4994550;28;20061;-78
2024/01/06 06:12:33;;;;;;;23.48;13.27;;;3.40;99.90;;;;;;4990685;28;20041;-78
2024/01/06 06:14:58;;;;;;;23.58;12.88;;;3.50;99.90;;;;;;4992058;28;20046;-78
2024/01/06 06:17:24;;;;;;;25.45;13.13;;;3.40;99.90;;;;;;4988881;28;20380;-78
2024/01/06 06:19:51;;;;;;;22.20;12.05;;;3.40;99.90;;;;;;4983190;28;20040;-77
2024/01/06 06:22:16;;;;;;;23.88;13.63;;;3.40;99.90;;;;;;5027531;23;20655;-74
2024/01/06 06:24:42;;;;;;;26.17;13.82;;;3.40;99.90;;;;;;4995121;28;20107;-74
2024/01/06 06:27:08;;;;;;;24.38;13.32;;;3.40;99.90;;;;;;5015201;28;20041;-74
2024/01/06 06:29:34;;;;;;;24.15;13.68;;;3.40;99.90;;;;;;5010051;28;20045;-74
2024/01/06 06:32:00;;;;;;;21.42;12.88;;;3.40;99.90;;;;;;5012056;28;20129;-74
2024/01/06 06:34:25;;;;;;;24.50;13.13;;;3.40;99.90;;;;;;4991239;28;20043;-74
2024/01/06 06:36:51;;;;;;;21.58;12.10;;;3.40;99.90;;;;;;5008073;28;20400;-74
2024/01/06 06:39:18;;;;;;;22.67;13.05;;;3.30;99.90;;;;;;5011240;28;20041;-74
2024/01/06 06:41:44;;;;;;;20.23;12.90;;;3.40;99.90;;;;;;5011794;28;20034;-74
2024/01/06 06:44:10;;;;;;;22.27;12.93;;;3.30;99.90;;;;;;5013089;28;20122;-74
2024/01/06 06:46:36;;;;;;;20.83;12.80;;;3.30;99.90;;;;;;5012412;28;20050;-74
2024/01/06 06:49:02;;;;;;;21.20;12.93;;;3.30;99.90;;;;;;5014810;28;20575;-74
2024/01/06 06:51:29;;;;;;;21.65;13.45;;;3.30;99.90;;;;;;5011758;28;20033;-74
2024/01/06 06:53:55;;;;;;;22.30;14.02;;;3.30;99.90;;;;;;5018731;28;20046;-74
2024/01/06 06:56:21;;;;;;;22.55;14.05;;;3.30;99.90;;;;;;4993786;28;20042;-74
2024/01/06 06:58:47;;;;;;;22.13;13.20;;;3.30;99.90;;;;;;4979647;28;20491;-74
2024/01/06 07:01:16;;;;;;;23.65;14.25;;;3.20;99.90;;;;;;5012186;28;20044;-74
2024/01/06 07:03:41;;;;;;;29.95;14.55;;;3.20;99.90;;;;;;5011515;28;20041;-74
2024/01/06 07:06:14;;;;;;;28.27;14.80;;;3.20;99.90;;;;;;4994954;28;20049;-74
2024/01/06 07:08:41;;;;;;;26.25;14.77;;;3.20;99.90;;;;;;5006592;28;20083;-74
2024/01/06 07:11:07;;;;;;;24.40;14.13;;;3.20;99.90;;;;;;5007555;28;20107;-73
2024/01/06 07:13:33;;;;;;;21.92;13.20;;;3.20;99.90;;;;;;5011177;28;20045;-74
2024/01/06 07:15:59;;;;;;;23.80;14.25;;;3.20;99.90;;;;;;5011479;28;20034;-74
2024/01/06 07:18:25;;;;;;;23.63;13.55;;;3.20;99.90;;;;;;5008913;28;20060;-74
2024/01/06 07:20:52;;;;;;;22.83;13.95;;;3.20;99.90;;;;;;5009635;28;20033;-74
2024/01/06 07:23:18;;;;;;;21.83;13.88;;;3.20;99.90;;;;;;4985282;28;20377;-74
2024/01/06 07:25:43;;;;;;;24.25;13.48;;;3.20;99.90;;;;;;4991125;28;20049;-74
2024/01/06 07:28:09;;;;;;;22.33;14.10;;;3.20;99.90;;;;;;5009143;28;20108;-74
2024/01/06 07:30:34;;;;;;;24.80;14.20;;;3.20;99.90;;;;;;5009202;28;20492;-74
2024/01/06 07:33:00;;;;;;;23.80;13.95;;;3.20;99.90;;;;;;5007911;28;20030;-74
2024/01/06 07:35:26;;;;;;;22.10;13.60;;;3.20;99.90;;;;;;5010586;28;20041;-74
2024/01/06 07:37:51;;;;;;;23.60;13.90;;;3.10;99.90;;;;;;5012016;28;20767;-74
2024/01/06 07:40:17;;;;;;;22.83;13.82;;;3.20;99.90;;;;;;5014479;28;20072;-74
2024/01/06 07:42:43;;;;;;;23.67;13.52;;;3.20;99.90;;;;;;5023394;28;20042;-74
2024/01/06 07:45:09;;;;;;;25.27;14.50;;;3.20;99.90;;;;;;5010898;28;20053;-74
2024/01/06 07:47:35;;;;;;;27.15;14.55;;;3.20;99.90;;;;;;5009169;28;20045;-74
2024/01/06 07:50:01;;;;;;;24.00;14.10;;;3.20;99.90;;;;;;5005708;28;20488;-74
2024/01/06 07:52:26;;;;;;;23.02;13.52;;;3.20;99.90;;;;;;5012051;28;20091;-74
2024/01/06 07:54:52;;;;;;;22.75;13.77;;;3.20;99.90;;;;;;5010871;28;20031;-74
2024/01/06 07:57:18;;;;;;;23.50;14.32;;;3.20;99.90;;;;;;5011273;28;20046;-74
2024/01/06 07:59:43;;;;;;;25.02;14.20;;;3.10;99.90;;;;;;5002562;28;20566;-74
2024/01/06 08:02:09;;;;;;;27.35;14.88;;;3.10;99.90;;;;;;5006427;28;20113;-74
2024/01/06 08:04:34;;;;;;;24.98;14.90;;;3.20;99.90;;;;;;5006588;28;20415;-73
2024/01/06 08:07:02;;;;;;;25.95;15.00;;;3.10;99.90;;;;;;4998913;28;20049;-74
2024/01/06 08:09:27;;;;;;;24.35;13.57;;;3.10;99.90;;;;;;5005900;28;20041;-74
2024/01/06 08:11:53;;;;;;;23.55;13.38;;;3.10;99.90;;;;;;5010464;28;20515;-74
2024/01/06 08:14:18;;;;;;;22.77;13.23;;;3.10;99.90;;;;;;5010396;28;20048;-74
2024/01/06 08:16:45;;;;;;;21.80;13.60;;;3.20;99.90;;;;;;5009353;28;20130;-74
2024/01/06 08:19:11;;;;;;;24.25;14.70;;;3.10;99.90;;;;;;5009106;28;20046;-75
2024/01/06 08:21:37;;;;;;;23.80;14.60;;;3.10;99.90;;;;;;5009767;28;20040;-74
2024/01/06 08:24:03;;;;;;;22.33;14.68;;;2.80;99.90;;;;;;5000674;28;20038;-75
2024/01/06 08:26:29;;;;;;;18.17;11.82;;;3.10;99.90;;;;;;4999911;28;20094;-75
2024/01/06 08:28:56;;;;;;;18.95;11.77;;;2.90;99.90;;;;;;4993427;28;20041;-76
2024/01/06 08:31:23;;;;;;;18.70;12.75;;;3.00;99.90;;;;;;5011996;28;20499;-74
2024/01/06 08:33:49;;;;;;;20.55;12.63;;;3.10;99.90;;;;;;4977413;28;20038;-74
2024/01/06 08:36:15;;;;;;;19.00;12.35;;;3.10;99.90;;;;;;5011338;28;20554;-74
2024/01/06 08:38:40;;;;;;;17.55;12.05;;;3.10;99.90;;;;;;5004344;28;20045;-74
2024/01/06 08:41:06;;;;;;;20.90;14.00;;;3.10;99.90;;;;;;5007785;28;20072;-74
2024/01/06 08:43:31;;;;;;;18.25;12.38;;;3.10;99.90;;;;;;5004583;28;20038;-74
2024/01/06 08:45:57;;;;;;;19.95;13.60;;;3.10;99.90;;;;;;5009671;28;20081;-74
2024/01/06 08:48:23;;;;;;;17.80;12.10;;;3.10;99.90;;;;;;5009554;28;20111;-74
2024/01/06 08:50:49;;;;;;;17.98;11.82;;;3.10;99.90;;;;;;5011114;28;20072;-73
2024/01/06 08:53:15;;;;;;;15.95;11.40;;;3.10;99.90;;;;;;4995481;28;20192;-74
2024/01/06 08:55:41;;;;;;;19.10;12.20;;;3.10;99.90;;;;;;5015835;28;20157;-74
2024/01/06 08:58:08;;;;;;;16.73;11.63;;;3.10;99.90;;;;;;4997876;28;20029;-75
2024/01/06 09:00:33;;;;;;;19.55;12.30;;;3.10;99.90;;;;;;5010046;28;20034;-75
2024/01/06 09:03:06;;;;;;;18.55;11.73;;;3.00;99.90;;;;;;5014588;28;20135;-75
2024/01/06 09:05:33;;;;;;;18.10;11.73;;;3.10;99.90;;;;;;5013646;28;20037;-75
2024/01/06 09:07:59;;;;;;;16.45;10.98;;;3.20;99.90;;;;;;5016465;28;20468;-74
2024/01/06 09:10:24;;;;;;;20.15;13.00;;;3.10;99.90;;;;;;5017236;28;20074;-74
2024/01/06 09:12:51;;;;;;;19.10;12.63;;;3.10;99.90;;;;;;5015919;28;20084;-73
2024/01/06 09:15:16;;;;;;;21.38;12.75;;;3.10;99.90;;;;;;4999909;28;20118;-73
2024/01/06 09:17:42;;;;;;;20.45;12.75;;;3.20;99.90;;;;;;5017378;28;20048;-73
2024/01/06 09:20:09;;;;;;;18.92;12.65;;;3.20;99.90;;;;;;5016667;28;20038;-73
2024/01/06 09:22:35;;;;;;;20.52;13.00;;;3.20;99.90;;;;;;5017026;28;20033;-74
2024/01/06 09:25:01;;;;;;;21.00;12.60;;;3.20;99.90;;;;;;5015875;28;20037;-74
2024/01/06 09:27:29;;;;;;;19.38;12.15;;;3.20;99.90;;;;;;5017334;28;20092;-74
2024/01/06 09:29:55;;;;;;;18.92;12.98;;;3.20;99.90;;;;;;5016107;28;20037;-73
2024/01/06 09:32:22;;;;;;;18.92;12.82;;;3.20;99.90;;;;;;5009106;28;20482;-74
2024/01/06 09:34:48;;;;;;;17.48;12.45;;;3.20;99.90;;;;;;5017314;28;20046;-73
2024/01/06 09:37:14;;;;;;;19.50;11.93;;;3.20;99.90;;;;;;5016867;28;20416;-73
2024/01/06 09:39:39;;;;;;;18.30;12.23;;;3.20;99.90;;;;;;5010947;28;20137;-73
2024/01/06 09:42:05;;;;;;;18.15;12.15;;;3.40;99.90;;;;;;4998652;28;20053;-74
2024/01/06 09:44:32;;;;;;;21.08;12.27;;;3.30;99.90;;;;;;4999582;28;20492;-73
2024/01/06 09:47:05;;;;;;;19.20;12.80;;;3.30;99.90;;;;;;5016241;28;20122;-74
2024/01/06 09:49:37;;;;;;;20.92;13.93;;;3.30;99.90;;;;;;4996927;28;20057;-74
2024/01/06 09:52:04;;;;;;;;;;;3.30;99.90;;;;;;5017133;28;20083;-73
2024/01/06 09:54:34;;;;;;;19.50;12.15;;;3.30;99.90;;;;;;5016993;28;19925;-73
2024/01/06 09:57:03;;;;;;;17.60;12.18;;;3.30;99.90;;;;;;5013276;28;20069;-73
2024/01/06 09:59:34;;;;;;;19.40;12.05;;;3.30;99.90;;;;;;5012874;28;20166;-73
2024/01/06 10:02:00;;;;;;;16.15;11.40;;;3.30;99.90;;;;;;5001775;28;20057;-73
2024/01/06 10:04:26;;;;;;;20.10;12.55;;;3.30;99.90;;;;;;5014536;28;20077;-73
2024/01/06 10:06:53;;;;;;;20.08;12.85;;;3.30;99.90;;;;;;5015050;28;20066;-73
2024/01/06 10:09:26;;;;;;;20.10;12.82;;;3.30;99.90;;;;;;4998295;28;20072;-74
2024/01/06 10:11:55;;;;;;;20.17;13.13;;;3.30;99.90;;;;;;5014545;28;20599;-74
2024/01/06 10:14:21;;;;;;;20.05;14.00;;;3.30;99.90;;;;;;5012188;28;20471;-74
2024/01/06 10:16:48;;;;;;;21.13;14.77;;;3.30;99.90;;;;;;5012244;28;20511;-74
2024/01/06 10:19:14;;;;;;;20.92;13.95;;;3.30;99.90;;;;;;5012723;28;20129;-73
2024/01/06 10:21:40;;;;;;;19.98;13.68;;;3.30;99.90;;;;;;5012150;28;20805;-73
2024/01/06 10:24:08;;;;;;;19.83;13.52;;;3.30;99.90;;;;;;5013981;28;20034;-73
2024/01/06 10:26:33;;;;;;;20.17;13.20;;;3.30;99.90;;;;;;5013146;28;20524;-73
2024/01/06 10:28:59;;;;;;;16.88;12.38;;;3.30;99.90;;;;;;5012623;28;20612;-73
2024/01/06 10:31:26;;;;;;;21.77;14.65;;;3.30;99.90;;;;;;5013735;28;20042;-73
2024/01/06 10:33:52;;;;;;;19.33;13.27;;;3.30;99.90;;;;;;5003820;28;20041;-73
2024/01/06 10:36:18;;;;;;;18.58;13.23;;;3.30;99.90;;;;;;4995742;28;20037;-73
2024/01/06 10:38:44;;;;;;;19.02;13.25;;;3.30;99.90;;;;;;5012999;28;20053;-73
2024/01/06 10:41:12;;;;;;;20.50;12.77;;;3.30;99.90;;;;;;5012045;28;20050;-73
2024/01/06 10:43:41;;;;;;;18.73;12.32;;;3.30;99.90;;;;;;5011243;28;20042;-73
2024/01/06 10:46:10;;;;;;;17.55;11.95;;;3.30;99.90;;;;;;5012443;28;20064;-73
2024/01/06 10:48:44;;;;;;;17.45;12.50;;;3.30;99.90;;;;;;4995954;28;20128;-73
2024/01/06 10:51:11;;;;;;;19.13;12.20;;;3.40;99.90;;;;;;5012766;28;20492;-73
2024/01/06 10:53:39;;;;;;;18.42;12.55;;;3.30;99.90;;;;;;5015458;28;20038;-73
2024/01/06 10:56:07;;;;;;;18.48;12.27;;;3.30;99.90;;;;;;5012058;28;20053;-73
2024/01/06 10:58:37;;;;;;;18.45;12.18;;;3.30;99.90;;;;;;5012106;28;20052;-73
2024/01/06 11:01:03;;;;;;;16.42;11.38;;;3.50;99.90;;;;;;5010460;28;20084;-73
2024/01/06 11:03:30;;;;;;;18.88;11.85;;;4.00;99.90;;;;;;5009829;28;20049;-73
2024/01/06 11:05:58;;;;;;;18.02;12.43;;;3.30;99.90;;;;;;5007910;28;20049;-73
2024/01/06 11:08:26;;;;;;;18.33;12.23;;;3.30;99.90;;;;;;5008409;28;20038;-73
2024/01/06 11:10:52;;;;;;;17.63;11.77;;;3.30;99.90;;;;;;5005562;28;20534;-73
2024/01/06 11:13:22;;;;;;;16.98;11.27;;;3.30;99.90;;;;;;5005047;28;20074;-74
2024/01/06 11:15:50;;;;;;;15.15;10.75;;;3.30;99.90;;;;;;5011306;28;20578;-74
2024/01/06 11:18:37;;;;;;;19.73;12.85;;;3.30;99.90;;;;;;5012617;28;20105;-73
2024/01/06 11:21:25;;;;;;;18.25;12.50;;;3.30;99.90;;;;;;4994378;28;20030;-73
2024/01/06 11:24:24;;;;;;;20.45;12.10;;;3.30;99.90;;;;;;4994681;28;20038;-73
2024/01/06 11:26:52;;;;;;;19.58;13.38;;;3.30;99.90;;;;;;5011257;28;20183;-73
2024/01/06 11:29:20;;;;;;;19.70;13.02;;;3.30;99.90;;;;;;4995516;28;20050;-73
2024/01/06 11:32:24;;;;;;;18.77;12.38;;;3.30;99.90;;;;;;5012757;28;20042;-74
2024/01/06 11:34:50;;;;;;;17.10;11.48;;;3.30;99.90;;;;;;5011072;28;20141;-74
2024/01/06 11:37:18;;;;;;;18.48;12.15;;;3.30;99.90;;;;;;5011530;28;20050;-74
2024/01/06 11:39:45;;;;;;;17.77;11.43;;;3.30;99.90;;;;;;5010191;28;20045;-74
2024/01/06 11:42:13;;;;;;;18.48;12.05;;;3.30;99.90;;;;;;5011330;28;20518;-74
2024/01/06 11:44:44;;;;;;;18.50;11.43;;;3.30;99.90;;;;;;4994262;28;20508;-74
2024/01/06 11:47:13;;;;;;;17.60;11.75;;;3.30;99.90;;;;;;5012130;28;20096;-74
2024/01/06 11:49:42;;;;;;;17.67;11.55;;;3.30;99.90;;;;;;4987182;28;20434;-74
2024/01/06 11:52:11;;;;;;;18.50;11.95;;;3.30;99.90;;;;;;5002933;28;20101;-74
2024/01/06 11:54:40;;;;;;;19.75;12.38;;;3.30;99.90;;;;;;5011575;28;20099;-74
2024/01/06 11:57:05;;;;;;;17.27;12.15;;;3.30;99.90;;;;;;5009962;28;20398;-74
2024/01/06 11:59:33;;;;;;;17.88;11.93;;;3.30;99.90;;;;;;5012418;28;20034;-74
2024/01/06 12:01:59;;;;;;;17.40;11.48;;;3.30;99.90;;;;;;5009747;28;20034;-74
2024/01/06 12:04:26;;;;;;;19.50;12.18;;;3.40;99.90;;;;;;5010644;28;20112;-73
2024/01/06 12:06:52;;;;;;;23.65;14.07;;;3.30;99.90;;;;;;5003736;28;20112;-74
2024/01/06 12:09:19;;;;;;;17.33;11.45;;;3.30;99.90;;;;;;5010922;28;20868;-75
2024/01/06 12:11:46;;;;;;;18.98;12.07;;;3.30;99.90;;;;;;5010537;28;20419;-75
2024/01/06 12:14:12;;;;;;;25.02;11.88;;;3.30;99.90;;;;;;4992864;28;20077;-76
2024/01/06 12:16:38;;;;;;;16.25;11.25;;;3.30;99.90;;;;;;4991840;28;21365;-76
2024/01/06 12:19:04;;;;;;;16.63;11.82;;;3.30;99.90;;;;;;5011101;28;20034;-75
2024/01/06 12:21:37;;;;;;;17.25;11.88;;;3.40;99.90;;;;;;5010615;28;20041;-75
2024/01/06 12:24:20;;;;;;;18.40;12.07;;;3.30;99.90;;;;;;5000086;23;20043;-77
2024/01/06 12:26:46;;;;;;;28.73;18.40;;;3.30;99.90;;;;;;4970793;28;20042;-76
2024/01/06 12:29:16;;;;;;;32.80;20.70;;;3.30;99.90;;;;;;4976672;28;20035;-77
2024/01/06 12:31:43;;;;;;;29.95;18.20;;;3.30;99.90;;;;;;4955806;28;20053;-76
2024/01/06 12:34:10;;;;;;;27.58;17.40;;;3.30;99.90;;;;;;4961288;28;20046;-77